Time;durP1;ratioP1;P1;durP2;ratioP2;P2;SDS_P1;SDS_P2;PMS_P1;PMS_P2;Temp;Humidity;BMP_temperature;BMP_pressure;BME280_temperature;BME280_humidity;BME280_pressure;Samples;Min_cycle;Max_cycle;Signal;HPM_P1;HPM_P2
2022/11/21 00:01:17;;;;;;;12.53;8.50;;;;;;;14.26;100.00;98290.66;5086911;28;20668;-72
2022/11/21 00:03:44;;;;;;;11.97;8.13;;;;;;;14.23;100.00;98288.50;5074049;28;20613;-72
2022/11/21 00:06:10;;;;;;;10.07;8.17;;;;;;;14.17;100.00;98281.44;5073769;28;20227;-72
2022/11/21 00:08:37;;;;;;;11.73;8.10;;;;;;;14.21;100.00;98287.13;5074199;28;20192;-72
2022/11/21 00:11:05;;;;;;;9.63;8.20;;;;;;;14.22;100.00;98270.81;5074065;28;20251;-72
2022/11/21 00:13:32;;;;;;;10.40;7.37;;;;;;;14.19;100.00;98215.25;5074046;28;20195;-72
2022/11/21 00:16:03;;;;;;;13.87;7.93;;;;;;;13.97;100.00;98195.72;5073688;28;20196;-72
2022/11/21 00:18:30;;;;;;;7.13;6.43;;;;;;;14.01;100.00;98209.41;5074222;28;20297;-72
2022/11/21 00:20:57;;;;;;;11.80;8.53;;;;;;;14.05;100.00;98205.19;5073926;28;20196;-72
2022/11/21 00:23:27;;;;;;;12.83;8.30;;;;;;;14.06;100.00;98190.78;5073887;28;20192;-72
2022/11/21 00:25:53;;;;;;;10.03;8.23;;;;;;;14.09;100.00;98187.63;5073439;28;20623;-71
2022/11/21 00:28:21;;;;;;;9.37;7.90;;;;;;;14.07;100.00;98185.19;5073833;28;20199;-71
2022/11/21 00:30:48;;;;;;;13.40;8.53;;;;;;;14.08;100.00;98173.44;5088608;28;20191;-72
2022/11/21 00:33:15;;;;;;;12.47;8.10;;;;;;;14.11;100.00;98196.97;5094213;28;20217;-71
2022/11/21 00:35:41;;;;;;;9.33;8.57;;;;;;;14.03;100.00;98184.06;5093639;28;20280;-72
2022/11/21 00:38:08;;;;;;;12.73;8.13;;;;;;;13.99;100.00;98172.28;5093477;28;20728;-71
2022/11/21 00:40:35;;;;;;;9.63;7.80;;;;;;;14.02;100.00;98160.28;5093980;28;20222;-72
2022/11/21 00:43:01;;;;;;;10.23;8.00;;;;;;;14.03;100.00;98164.56;5093768;28;20253;-72
2022/11/21 00:45:29;;;;;;;10.77;7.90;;;;;;;14.07;100.00;98149.66;5093594;28;20203;-71
2022/11/21 00:47:56;;;;;;;10.53;8.17;;;;;;;14.09;100.00;98145.69;5093311;28;20655;-72
2022/11/21 00:50:23;;;;;;;9.90;8.57;;;;;;;14.05;100.00;98163.25;5093853;28;20252;-72
2022/11/21 00:52:49;;;;;;;9.93;8.80;;;;;;;13.94;100.00;98172.22;5093556;28;20191;-72
2022/11/21 00:55:16;;;;;;;12.63;8.23;;;;;;;13.89;100.00;98166.81;5093368;28;20219;-72
2022/11/21 00:57:43;;;;;;;8.67;7.70;;;;;;;13.77;100.00;98190.16;5094032;28;20191;-72
2022/11/21 01:00:11;;;;;;;9.13;7.60;;;;;;;13.59;100.00;98214.47;5092706;28;20190;-73
2022/11/21 01:02:39;;;;;;;8.43;7.63;;;;;;;13.25;100.00;98236.91;5073207;28;20199;-72
2022/11/21 01:05:06;;;;;;;11.63;7.90;;;;;;;13.02;100.00;98258.38;5072887;28;20267;-72
2022/11/21 01:07:33;;;;;;;10.60;9.00;;;;;;;12.85;100.00;98281.50;5072652;28;20192;-72
2022/11/21 01:10:00;;;;;;;10.97;8.43;;;;;;;12.81;100.00;98280.38;5073116;28;20199;-72
2022/11/21 01:12:26;;;;;;;12.23;8.53;;;;;;;12.76;100.00;98274.97;5072573;28;20229;-72
2022/11/21 01:14:53;;;;;;;10.30;8.57;;;;;;;12.87;100.00;98290.06;5072439;28;20220;-72
2022/11/21 01:17:20;;;;;;;13.90;8.07;;;;;;;12.83;100.00;98288.94;5072536;28;20285;-72
2022/11/21 01:19:48;;;;;;;10.73;8.67;;;;;;;12.90;100.00;98288.81;5073109;28;20202;-73
2022/11/21 01:22:14;;;;;;;10.20;8.53;;;;;;;12.97;100.00;98316.94;5072372;28;20562;-72
2022/11/21 01:24:41;;;;;;;15.60;9.07;;;;;;;12.90;100.00;98356.22;5073065;28;20198;-72
2022/11/21 01:27:08;;;;;;;10.80;8.67;;;;;;;12.88;100.00;98353.00;5072558;28;20245;-72
2022/11/21 01:29:34;;;;;;;10.70;8.60;;;;;;;12.96;100.00;98307.31;5077579;28;20185;-72
2022/11/21 01:32:01;;;;;;;15.53;10.07;;;;;;;12.95;100.00;98217.72;5092452;28;20195;-72
2022/11/21 01:34:28;;;;;;;13.43;9.10;;;;;;;12.92;100.00;98154.25;5092407;28;20223;-72
2022/11/21 01:36:56;;;;;;;12.70;10.43;;;;;;;13.04;100.00;98167.53;5092613;28;20252;-72
2022/11/21 01:39:23;;;;;;;12.67;11.37;;;;;;;13.09;100.00;98176.41;5092595;28;20274;-72
2022/11/21 01:41:49;;;;;;;14.50;10.97;;;;;;;13.04;100.00;98173.66;5092281;28;20751;-73
2022/11/21 01:44:20;;;;;;;13.87;11.13;;;;;;;13.16;100.00;98182.38;5093460;28;20198;-72
2022/11/21 01:46:47;;;;;;;12.63;10.17;;;;;;;13.28;100.00;98175.06;5092215;28;20252;-73
2022/11/21 01:49:17;;;;;;;16.80;10.20;;;;;;;13.38;100.00;98183.22;5092267;28;20225;-72
2022/11/21 01:51:49;;;;;;;11.00;10.03;;;;;;;13.53;100.00;98183.44;5092478;28;20240;-72
2022/11/21 01:54:23;;;;;;;15.27;10.57;;;;;;;13.62;100.00;98205.16;5092496;28;20213;-73
2022/11/21 01:56:54;;;;;;;12.73;9.43;;;;;;;13.65;100.00;98208.16;5092135;28;20219;-72
2022/11/21 01:59:29;;;;;;;10.40;9.13;;;;;;;13.67;100.00;98216.72;5079522;28;20188;-72
2022/11/21 02:01:57;;;;;;;13.33;8.47;;;;;;;13.67;100.00;98222.03;5089955;28;20536;-72
2022/11/21 02:04:28;;;;;;;11.87;8.83;;;;;;;13.67;100.00;98219.38;5071869;28;20254;-72
2022/11/21 02:06:55;;;;;;;9.70;7.90;;;;;;;13.60;100.00;98213.41;5078699;28;20701;-71
2022/11/21 02:09:25;;;;;;;10.33;8.03;;;;;;;13.69;100.00;98222.59;5092605;28;20673;-71
2022/11/21 02:11:56;;;;;;;7.67;6.93;;;;;;;13.60;100.00;98213.41;5092633;28;20186;-72
2022/11/21 02:14:23;;;;;;;8.43;7.37;;;;;;;13.65;100.00;98202.81;5093431;28;20244;-72
2022/11/21 02:16:50;;;;;;;10.80;7.23;;;;;;;13.69;100.00;98187.91;5073719;28;20192;-72
2022/11/21 02:19:25;;;;;;;10.07;7.63;;;;;;;13.79;100.00;98180.03;5072361;28;20245;-72
2022/11/21 02:21:55;;;;;;;12.07;7.70;;;;;;;13.87;100.00;98174.28;5072090;28;20245;-72
2022/11/21 02:24:30;;;;;;;7.67;6.97;;;;;;;13.88;100.00;98167.88;5072073;28;20585;-72
2022/11/21 02:26:59;;;;;;;11.60;7.80;;;;;;;13.93;100.00;98173.25;5071641;28;20179;-72
2022/11/21 02:29:27;;;;;;;9.13;7.40;;;;;;;13.96;100.00;98172.78;5075966;28;20249;-72
2022/11/21 02:31:53;;;;;;;7.23;6.63;;;;;;;13.88;100.00;98157.19;5090247;28;20245;-72
2022/11/21 02:34:20;;;;;;;15.27;7.70;;;;;;;13.87;100.00;98171.59;5071526;28;20223;-72
2022/11/21 02:36:47;;;;;;;10.40;7.00;;;;;;;13.86;100.00;98155.84;5071425;28;20656;-72
2022/11/21 02:39:19;;;;;;;8.00;7.20;;;;;;;13.75;100.00;98146.91;5071840;28;20195;-72
2022/11/21 02:41:54;;;;;;;7.67;7.03;;;;;;;13.80;100.00;98160.28;5071790;28;20633;-72
2022/11/21 02:44:29;;;;;;;11.57;7.30;;;;;;;13.59;100.00;98145.09;5072372;28;20192;-71
2022/11/21 02:46:56;;;;;;;9.73;6.97;;;;;;;13.58;100.00;98127.47;5072074;28;20194;-71
2022/11/21 02:49:31;;;;;;;9.07;6.93;;;;;;;13.57;100.00;98122.41;5071412;28;20195;-71
2022/11/21 02:51:58;;;;;;;7.90;6.90;;;;;;;13.59;100.00;98139.75;5072097;28;20253;-71
2022/11/21 02:54:25;;;;;;;7.77;6.87;;;;;;;13.62;100.00;98149.13;5071310;28;20277;-72
2022/11/21 02:56:51;;;;;;;9.70;7.47;;;;;;;13.53;100.00;98124.75;5071277;28;20191;-72
2022/11/21 02:59:18;;;;;;;8.37;7.07;;;;;;;13.54;100.00;98120.22;5072434;28;20196;-71
2022/11/21 03:01:46;;;;;;;7.40;6.70;;;;;;;13.58;100.00;98126.66;5071715;28;20254;-72
2022/11/21 03:04:13;;;;;;;7.70;7.10;;;;;;;13.57;100.00;98131.22;5071333;28;20656;-72
2022/11/21 03:06:39;;;;;;;9.07;6.77;;;;;;;13.57;100.00;98133.88;5078140;28;20748;-72
2022/11/21 03:09:06;;;;;;;8.57;7.57;;;;;;;13.46;100.00;98147.31;5091419;28;20191;-72
2022/11/21 03:11:33;;;;;;;8.37;7.30;;;;;;;13.47;100.00;98160.41;5091300;28;20663;-72
2022/11/21 03:13:59;;;;;;;7.87;7.17;;;;;;;13.48;100.00;98132.66;5092127;28;20203;-72
2022/11/21 03:16:26;;;;;;;8.40;7.40;;;;;;;13.31;100.00;98126.59;5091104;28;20268;-72
2022/11/21 03:18:54;;;;;;;11.80;7.63;;;;;;;13.27;100.00;98160.13;5091467;28;20223;-72
2022/11/21 03:21:21;;;;;;;9.03;7.70;;;;;;;13.28;100.00;98147.63;5091668;28;20195;-72
2022/11/21 03:23:47;;;;;;;8.27;7.37;;;;;;;13.26;100.00;98129.19;5094074;28;20248;-71
2022/11/21 03:26:14;;;;;;;8.53;7.83;;;;;;;13.17;100.00;98133.34;5094926;28;20720;-72
2022/11/21 03:28:42;;;;;;;9.83;8.27;;;;;;;13.15;100.00;98102.66;5094918;28;20730;-71
2022/11/21 03:31:08;;;;;;;9.90;8.97;;;;;;;13.11;100.00;98126.31;5076899;28;20229;-71
2022/11/21 03:33:35;;;;;;;12.77;8.80;;;;;;;13.15;100.00;98143.44;5074414;28;20257;-72
2022/11/21 03:36:04;;;;;;;13.90;10.03;;;;;;;12.66;100.00;98068.84;5074868;28;20293;-71
2022/11/21 03:38:30;;;;;;;13.27;9.97;;;;;;;12.92;100.00;98094.81;5074374;28;20612;-71
2022/11/21 03:40:57;;;;;;;11.87;10.77;;;;;;;13.01;100.00;98099.53;5075022;28;20188;-71
2022/11/21 03:43:24;;;;;;;14.27;10.50;;;;;;;12.95;100.00;98094.34;5074624;28;20244;-72
2022/11/21 03:45:50;;;;;;;15.30;13.13;;;;;;;13.05;100.00;98095.31;5075442;28;20202;-72
2022/11/21 03:48:17;;;;;;;16.97;12.80;;;;;;;13.10;100.00;98087.38;5074183;28;20194;-71
2022/11/21 03:50:44;;;;;;;16.43;12.60;;;;;;;13.22;100.00;98104.06;5074267;28;20192;-71
2022/11/21 03:53:12;;;;;;;13.60;12.20;;;;;;;13.30;100.00;98087.66;5074165;28;20618;-72
2022/11/21 03:55:39;;;;;;;18.33;11.73;;;;;;;13.40;100.00;98086.97;5074401;28;20273;-71
2022/11/21 03:58:05;;;;;;;14.73;12.20;;;;;;;13.45;100.00;98082.50;5074431;28;20191;-71
2022/11/21 04:00:32;;;;;;;15.73;11.40;;;;;;;13.53;100.00;98095.41;5074315;28;20253;-72
2022/11/21 04:02:59;;;;;;;14.10;12.03;;;;;;;13.60;100.00;98097.91;5074428;28;20250;-71
2022/11/21 04:05:25;;;;;;;15.23;12.47;;;;;;;13.46;100.00;98086.78;5073986;28;20200;-71
2022/11/21 04:07:52;;;;;;;16.20;11.53;;;;;;;13.47;100.00;98087.56;5091598;28;20241;-72
2022/11/21 04:10:20;;;;;;;14.07;11.23;;;;;;;13.50;100.00;98090.56;5094379;28;20195;-71
2022/11/21 04:12:47;;;;;;;16.70;12.10;;;;;;;13.31;100.00;98110.59;5095180;28;20204;-72
2022/11/21 04:15:14;;;;;;;16.07;12.33;;;;;;;13.23;100.00;98105.69;5094526;28;20218;-71
2022/11/21 04:17:40;;;;;;;14.33;12.27;;;;;;;13.20;100.00;98118.69;5093652;28;20712;-71
2022/11/21 04:20:08;;;;;;;20.80;12.33;;;;;;;13.13;100.00;98113.56;5094317;28;20614;-72
2022/11/21 04:22:35;;;;;;;12.23;11.13;;;;;;;13.16;100.00;98113.06;5094008;28;20195;-72
2022/11/21 04:25:01;;;;;;;13.40;11.43;;;;;;;13.12;100.00;98095.13;5093802;28;20253;-72
2022/11/21 04:27:29;;;;;;;13.67;11.57;;;;;;;13.21;100.00;98094.47;5094581;28;20192;-73
2022/11/21 04:29:56;;;;;;;12.20;10.63;;;;;;;13.23;100.00;98091.56;5085649;28;20193;-72
2022/11/21 04:32:23;;;;;;;12.93;11.73;;;;;;;13.17;100.00;98093.34;5073653;28;20249;-72
2022/11/21 04:34:50;;;;;;;14.47;11.90;;;;;;;13.18;100.00;98081.63;5072236;28;20226;-72
2022/11/21 04:37:16;;;;;;;17.60;13.13;;;;;;;13.21;100.00;98099.81;5073208;28;20671;-73
2022/11/21 04:39:43;;;;;;;14.37;12.47;;;;;;;13.24;100.00;98093.94;5073664;28;20253;-73
2022/11/21 04:42:10;;;;;;;12.80;11.50;;;;;;;13.26;100.00;98102.53;5073380;28;20226;-73
2022/11/21 04:44:38;;;;;;;20.50;14.03;;;;;;;13.05;100.00;98084.66;5073227;28;20196;-72
2022/11/21 04:47:04;;;;;;;20.47;14.07;;;;;;;13.02;100.00;98065.69;5073719;28;20191;-73
2022/11/21 04:49:31;;;;;;;19.30;13.60;;;;;;;13.05;100.00;98079.31;5073345;28;20188;-73
2022/11/21 04:51:58;;;;;;;17.57;14.47;;;;;;;12.99;100.00;98106.94;5072903;28;20585;-73
2022/11/21 04:54:24;;;;;;;18.67;15.10;;;;;;;12.88;100.00;98115.00;5073148;28;20222;-73
2022/11/21 04:56:51;;;;;;;20.43;16.70;;;;;;;12.76;100.00;98120.44;5073440;28;20226;-75
2022/11/21 04:59:18;;;;;;;21.90;16.70;;;;;;;12.62;100.00;98079.16;5088570;28;20190;-73
2022/11/21 05:01:46;;;;;;;22.30;16.27;;;;;;;12.81;100.00;98099.19;5093182;28;20195;-73
2022/11/21 05:04:13;;;;;;;19.97;16.23;;;;;;;12.87;100.00;98103.53;5092746;28;20245;-73
2022/11/21 05:06:40;;;;;;;26.73;17.07;;;;;;;12.74;100.00;98103.88;5085549;28;20197;-73
2022/11/21 05:09:06;;;;;;;24.83;17.20;;;;;;;12.54;100.00;98071.59;5070624;28;20198;-75
2022/11/21 05:14:17;;;;;;;29.47;19.23;;;;;;;12.67;100.00;98092.59;5070821;28;20228;-75
2022/11/21 05:16:44;;;;;;;24.97;18.33;;;;;;;12.52;100.00;98084.34;5070141;28;20708;-74
2022/11/21 05:19:12;;;;;;;21.90;17.07;;;;;;;12.65;100.00;98094.69;5070442;28;20621;-72
2022/11/21 05:21:38;;;;;;;20.43;17.00;;;;;;;12.75;100.00;98105.50;5073643;28;20191;-72
2022/11/21 05:24:06;;;;;;;27.90;18.77;;;;;;;12.69;100.00;98084.34;5072600;28;20249;-72
2022/11/21 05:26:32;;;;;;;21.90;18.13;;;;;;;12.75;100.00;98086.03;5072408;28;20226;-72
2022/11/21 05:28:59;;;;;;;24.50;18.40;;;;;;;12.65;100.00;98086.69;5072229;28;20198;-72
2022/11/21 05:31:26;;;;;;;26.30;17.67;;;;;;;12.70;100.00;98076.09;5092530;28;20737;-72
2022/11/21 05:33:52;;;;;;;18.30;13.20;;;;;;;12.66;100.00;98063.53;5093137;28;20190;-72
2022/11/21 05:36:21;;;;;;;24.17;19.47;;;;;;;12.75;100.00;98078.88;5092360;28;20721;-72
2022/11/21 05:38:47;;;;;;;27.37;19.50;;;;;;;12.71;100.00;98092.91;5092698;28;20252;-72
2022/11/21 05:41:14;;;;;;;28.13;19.83;;;;;;;12.79;100.00;98122.63;5092597;28;20264;-72
2022/11/21 05:43:45;;;;;;;26.97;19.47;;;;;;;12.76;100.00;98104.44;5092652;28;20269;-73
2022/11/21 05:46:12;;;;;;;29.43;20.07;;;;;;;12.82;100.00;98108.78;5093116;28;20192;-73
2022/11/21 05:48:39;;;;;;;31.47;20.57;;;;;;;12.96;100.00;98118.06;5092502;28;20256;-73
2022/11/21 05:51:05;;;;;;;21.40;16.37;;;;;;;12.88;100.00;98099.84;5092660;28;20244;-73
2022/11/21 05:53:33;;;;;;;22.43;17.37;;;;;;;13.01;100.00;98114.69;5091936;28;20191;-72
2022/11/21 05:56:03;;;;;;;24.63;17.77;;;;;;;13.15;100.00;98116.75;5092242;28;20308;-72
2022/11/21 05:58:29;;;;;;;26.23;17.77;;;;;;;13.17;100.00;98130.66;5092710;28;20198;-72
2022/11/21 06:00:57;;;;;;;21.17;17.77;;;;;;;13.30;100.00;98119.66;5092201;28;20655;-72
2022/11/21 06:03:25;;;;;;;23.30;16.07;;;;;;;13.43;100.00;98123.81;5091406;28;20285;-73
2022/11/21 06:05:52;;;;;;;19.83;16.90;;;;;;;13.63;100.00;98130.22;5070592;28;20200;-74
2022/11/21 06:08:19;;;;;;;25.67;17.40;;;;;;;13.88;100.00;98154.53;5088629;28;20282;-74
2022/11/21 06:10:47;;;;;;;23.77;19.20;;;;;;;14.04;100.00;98158.16;5090285;28;20252;-76
2022/11/21 06:13:23;;;;;;;27.17;19.90;;;;;;;14.36;100.00;98149.22;5090803;28;20203;-76
2022/11/21 06:15:52;;;;;;;26.37;20.03;;;;;;;14.48;100.00;98133.00;5089493;28;20214;-71
2022/11/21 06:18:19;;;;;;;14.47;8.90;;;;;;;14.94;100.00;98127.78;5091311;28;20230;-70
2022/11/21 06:20:46;;;;;;;25.10;14.90;;;;;;;15.83;100.00;98126.69;5091777;28;20196;-72
2022/11/21 06:23:12;;;;;;;18.03;14.83;;;;;;;16.64;100.00;98121.50;5091735;28;20252;-70
2022/11/21 06:25:39;;;;;;;20.03;15.37;;;;;;;17.43;100.00;98109.09;5091841;28;20252;-70
2022/11/21 06:28:07;;;;;;;20.33;14.63;;;;;;;17.54;92.58;98132.94;5092052;28;20293;-76
2022/11/21 06:30:35;;;;;;;12.83;11.77;;;;;;;17.66;91.36;98129.94;5060601;28;20192;-69
2022/11/21 06:33:04;;;;;;;14.97;12.17;;;;;;;17.87;90.79;98131.47;5072436;28;20248;-67
2022/11/21 06:35:31;;;;;;;13.53;10.73;;;;;;;17.81;85.90;98148.69;5071168;28;20787;-69
2022/11/21 06:37:58;;;;;;;12.17;11.07;;;;;;;17.66;84.42;98154.09;5071759;28;20280;-67
2022/11/21 06:40:25;;;;;;;14.80;11.13;;;;;;;17.66;86.77;98146.06;5083363;28;20205;-76
2022/11/21 06:42:51;;;;;;;14.23;11.50;;;;;;;17.76;86.49;98156.78;5091970;28;20199;-74
2022/11/21 06:45:19;;;;;;;15.50;12.73;;;;;;;17.73;86.44;98168.06;5091914;28;20191;-76
2022/11/21 06:47:47;;;;;;;11.10;10.00;;;;;;;17.76;87.93;98173.69;5091369;28;20193;-76
2022/11/21 06:50:14;;;;;;;11.80;10.63;;;;;;;17.62;85.06;98177.22;5091776;28;20616;-73
2022/11/21 06:52:40;;;;;;;10.83;9.43;;;;;;;17.70;86.00;98169.41;5092163;28;20248;-77
2022/11/21 06:55:08;;;;;;;15.23;11.07;;;;;;;17.61;86.38;98165.69;5091504;28;20249;-77
2022/11/21 06:57:35;;;;;;;11.73;9.63;;;;;;;17.82;89.22;98166.41;5092910;28;20243;-77
2022/11/21 07:00:02;;;;;;;12.17;8.43;;;;;;;18.42;87.85;98158.09;5095880;28;20248;-77
2022/11/21 07:02:30;;;;;;;9.00;8.20;;;;;;;18.98;84.89;98172.72;5095698;28;20199;-77
2022/11/21 07:04:56;;;;;;;8.97;7.20;;;;;;;19.26;79.03;98188.13;5095998;28;20196;-72
2022/11/21 07:07:23;;;;;;;12.40;7.37;;;;;;;19.21;82.84;98167.41;5081696;28;20196;-67
2022/11/21 07:09:50;;;;;;;11.00;7.53;;;;;;;19.54;79.20;98174.66;5074816;28;20656;-67
2022/11/21 07:15:01;;;;;;;12.83;7.17;;;;;;;20.70;81.15;98175.91;5074021;28;20226;-68
2022/11/21 07:17:27;;;;;;;13.50;7.80;;;;;;;21.13;79.37;98186.31;5081054;28;20231;-67
2022/11/21 07:19:55;;;;;;;13.90;9.43;;;;;;;21.50;70.81;98202.41;5095481;28;20191;-69
2022/11/21 07:22:22;;;;;;;15.60;9.97;;;;;;;21.08;69.21;98189.09;5084186;28;20200;-68
2022/11/21 07:24:49;;;;;;;11.70;8.53;;;;;;;21.04;71.87;98179.97;5074927;28;20192;-69
2022/11/21 07:27:16;;;;;;;32.67;28.50;;;;;;;21.17;72.87;98190.00;5095283;28;20195;-68
2022/11/21 07:29:43;;;;;;;12.73;10.33;;;;;;;21.41;72.60;98198.78;5094647;28;20728;-69
2022/11/21 07:32:10;;;;;;;15.47;10.73;;;;;;;21.31;72.17;98193.53;5094806;28;20667;-69
2022/11/21 07:34:37;;;;;;;12.17;10.63;;;;;;;21.26;70.46;98209.84;5094981;28;20191;-71
2022/11/21 07:37:05;;;;;;;13.00;11.23;;;;;;;20.73;71.88;98207.69;5094710;28;20705;-69
2022/11/21 07:39:32;;;;;;;11.00;9.33;;;;;;;20.47;74.79;98199.16;5095369;28;20245;-70
2022/11/21 07:41:59;;;;;;;17.37;12.03;;;;;;;20.43;74.61;98195.44;5095333;28;20206;-68
2022/11/21 07:44:25;;;;;;;26.07;15.30;;;;;;;20.21;73.06;98205.97;5094569;28;20199;-68
2022/11/21 07:46:54;;;;;;;11.20;10.10;;;;;;;19.99;77.85;98202.97;5094524;28;20198;-69
2022/11/21 07:49:21;;;;;;;11.47;10.33;;;;;;;19.98;78.12;98186.00;5095346;28;20244;-68
2022/11/21 07:51:47;;;;;;;22.70;16.43;;;;;;;19.89;73.92;98192.34;5094311;28;20622;-72
2022/11/21 07:54:15;;;;;;;23.60;16.53;;;;;;;19.84;75.62;98195.06;5094585;28;20196;-72
2022/11/21 07:56:42;;;;;;;36.13;20.83;;;;;;;19.66;74.82;98198.50;5094537;28;20220;-72
2022/11/21 07:59:09;;;;;;;24.17;17.60;;;;;;;19.58;76.34;98199.94;5089695;28;20208;-72
2022/11/21 08:01:35;;;;;;;25.40;17.50;;;;;;;19.43;76.56;98200.09;5081864;28;20229;-74
2022/11/21 08:04:02;;;;;;;20.67;15.13;;;;;;;19.18;76.29;98180.63;5091598;28;20631;-72
2022/11/21 08:06:29;;;;;;;16.97;13.00;;;;;;;19.12;77.86;98187.94;5093116;28;20284;-72
2022/11/21 08:08:56;;;;;;;32.07;22.67;;;;;;;19.19;78.90;98198.41;5094171;28;20196;-73
2022/11/21 08:11:24;;;;;;;17.83;12.70;;;;;;;19.42;81.05;98205.75;5095050;28;20635;-74
2022/11/21 08:13:51;;;;;;;19.70;14.50;;;;;;;19.60;79.99;98203.13;5094029;28;20674;-72
2022/11/21 08:16:18;;;;;;;20.63;14.10;;;;;;;19.60;77.83;98218.50;5089615;28;20279;-74
2022/11/21 08:18:44;;;;;;;22.23;14.00;;;;;;;19.78;79.23;98225.88;5093854;28;20698;-74
2022/11/21 08:21:11;;;;;;;12.77;11.03;;;;;;;19.90;78.99;98231.66;5077813;28;20196;-71
2022/11/21 08:23:38;;;;;;;22.07;12.27;;;;;;;19.84;74.91;98222.81;5073702;28;20259;-66
2022/11/21 08:26:04;;;;;;;16.87;10.60;;;;;;;20.03;76.26;98225.56;5085819;28;20735;-66
2022/11/21 08:28:32;;;;;;;15.77;10.60;;;;;;;20.17;75.87;98231.91;5088583;28;20205;-70
2022/11/21 08:31:02;;;;;;;12.27;9.63;;;;;;;20.29;75.00;98224.19;5079471;28;20260;-65
2022/11/21 08:33:29;;;;;;;18.20;10.03;;;;;;;20.58;74.25;98227.59;5089140;28;20245;-65
2022/11/21 08:35:56;;;;;;;18.57;9.53;;;;;;;20.98;72.83;98237.06;5093220;28;20219;-70
2022/11/21 08:38:22;;;;;;;10.70;9.17;;;;;;;21.23;70.42;98239.34;5093456;28;20194;-68
2022/11/21 08:42:01;;;;;;;14.60;8.13;;;;;;;21.45;68.00;98248.44;5093828;28;20282;-69
2022/11/21 08:43:38;;;;;;;13.13;8.27;;;;;;;21.75;66.89;98247.09;5093840;28;20566;-70
2022/11/21 08:46:05;;;;;;;10.57;7.97;;;;;;;21.87;67.69;98233.91;5093428;28;20662;-79
2022/11/21 08:48:31;;;;;;;11.27;7.87;;;;;;;22.22;67.89;98242.13;5093803;28;20199;-69
2022/11/21 08:50:58;;;;;;;12.77;7.93;;;;;;;22.47;67.59;98254.38;5093811;28;20240;-70
2022/11/21 08:53:25;;;;;;;14.37;8.20;;;;;;;22.70;67.23;98239.81;5093891;28;20249;-68
2022/11/21 08:55:52;;;;;;;8.10;6.73;;;;;;;22.88;62.88;98250.50;5093337;28;20191;-71
2022/11/21 08:58:19;;;;;;;9.03;6.23;;;;;;;23.07;59.79;98253.81;5093017;28;20229;-70
2022/11/21 09:00:47;;;;;;;7.00;4.73;;;;;;;23.02;58.66;98250.44;5093063;28;20732;-69
2022/11/21 09:03:13;;;;;;;4.90;2.63;;;;;;;22.85;53.06;98256.53;5092925;28;20587;-72
2022/11/21 09:05:40;;;;;;;4.13;2.37;;;;;;;22.59;51.53;98252.78;5091608;28;20240;-66
2022/11/21 09:08:08;;;;;;;3.83;2.00;;;;;;;22.74;52.96;98247.00;5090962;28;20675;-66
2022/11/21 09:10:35;;;;;;;2.80;1.83;;;;;;;22.98;51.57;98252.16;5087942;28;20237;-66
2022/11/21 09:13:01;;;;;;;3.40;1.67;;;;;;;22.28;50.57;98230.13;5072633;28;20261;-67
2022/11/21 09:18:13;;;;;;;2.80;1.70;;;;;;;22.04;51.40;98240.34;5072511;28;20765;-66
2022/11/21 09:20:41;;;;;;;3.80;1.93;;;;;;;22.05;54.87;98228.41;5072373;28;20245;-65
2022/11/21 09:23:09;;;;;;;4.03;1.20;;;;;;;22.11;50.75;98235.34;5072529;28;20203;-68
2022/11/21 09:25:36;;;;;;;3.47;1.50;;;;;;;21.86;51.13;98233.13;5081621;28;20225;-69
2022/11/21 09:28:05;;;;;;;5.27;1.37;;;;;;;21.78;51.18;98233.81;5087783;28;20207;-69
2022/11/21 09:30:32;;;;;;;1.90;1.70;;;;;;;21.38;52.40;98229.09;5086881;28;20633;-69
2022/11/21 09:33:01;;;;;;;4.80;1.50;;;;;;;20.98;51.38;98218.94;5085043;28;20195;-72
2022/11/21 09:35:29;;;;;;;2.27;1.30;;;;;;;20.99;52.81;98225.94;5072792;28;20189;-74
2022/11/21 09:37:56;;;;;;;1.57;1.47;;;;;;;21.15;53.91;98208.41;5091580;28;20219;-71
2022/11/21 09:40:23;;;;;;;1.57;1.40;;;;;;;21.09;49.81;98217.69;5091960;28;20257;-69
2022/11/21 09:43:06;;;;;;;1.37;0.90;;;;;;;20.78;48.99;98226.53;5091768;28;20195;-72
2022/11/21 09:45:34;;;;;;;1.60;0.87;;;;;;;20.65;49.06;98229.94;5086790;28;20219;-70
2022/11/21 09:48:06;;;;;;;1.40;1.00;;;;;;;20.52;48.64;98224.19;5072452;28;20290;-70
2022/11/21 09:50:37;;;;;;;2.57;0.90;;;;;;;20.45;48.61;98222.91;5072592;28;20187;-70
2022/11/21 09:53:09;;;;;;;1.67;0.83;;;;;;;20.53;48.72;98247.38;5072117;28;20221;-69
2022/11/21 09:55:42;;;;;;;2.47;0.97;;;;;;;20.48;49.16;98235.84;5072079;28;20265;-72
2022/11/21 09:58:19;;;;;;;1.90;0.93;;;;;;;20.33;48.58;98244.09;5072376;28;20208;-70
2022/11/21 10:00:46;;;;;;;2.77;0.90;;;;;;;20.29;49.55;98240.38;5092093;28;20716;-71
2022/11/21 10:03:13;;;;;;;2.00;1.27;;;;;;;20.27;48.77;98247.97;5074462;28;20423;-71
2022/11/21 10:05:47;;;;;;;1.97;0.90;;;;;;;20.42;49.08;98231.59;5072950;28;20650;-70
2022/11/21 10:08:22;;;;;;;0.83;0.70;;;;;;;20.58;48.43;98243.78;5072085;28;20643;-72
2022/11/21 10:10:55;;;;;;;1.63;0.63;;;;;;;20.64;47.72;98242.63;5070939;28;20187;-73
2022/11/21 10:13:39;;;;;;;1.20;0.87;;;;;;;20.69;48.35;98239.84;5082726;28;20218;-70
2022/11/21 10:16:12;;;;;;;3.50;0.70;;;;;;;20.70;47.82;98241.44;5091594;28;20187;-74
2022/11/21 10:19:28;;;;;;;3.53;0.80;;;;;;;20.80;46.59;98241.31;5091912;28;20318;-72
2022/11/21 10:22:28;;;;;;;1.83;0.80;;;;;;;20.81;46.53;98242.91;5043892;28;20207;-70
2022/11/21 10:24:56;;;;;;;4.37;0.97;;;;;;;20.82;46.54;98249.91;5091067;28;20577;-72
2022/11/21 10:27:31;;;;;;;3.80;0.80;;;;;;;20.54;46.24;98231.97;5091794;28;20249;-76
2022/11/21 10:30:02;;;;;;;6.10;0.70;;;;;;;20.32;46.66;98234.41;5090839;28;20240;-72
2022/11/21 10:32:35;;;;;;;3.00;0.70;;;;;;;20.30;47.72;98239.31;5093613;28;20230;-73
2022/11/21 10:35:12;;;;;;;1.17;1.07;;;;;;;20.30;50.21;98225.81;5094486;28;20195;-72
2022/11/21 10:37:47;;;;;;;1.77;1.33;;;;;;;20.55;53.20;98234.38;5095143;28;20215;-72
2022/11/21 10:40:23;;;;;;;2.33;1.40;;;;;;;20.70;54.75;98230.66;5096420;28;20190;-74
2022/11/21 10:42:55;;;;;;;7.57;1.00;;;;;;;20.76;55.32;98240.31;5096210;28;20238;-70
2022/11/21 10:45:22;;;;;;;6.47;1.20;;;;;;;20.66;57.87;98234.25;5096101;28;20638;-69
2022/11/21 10:47:50;;;;;;;13.50;1.67;;;;;;;20.70;59.68;98246.84;5096313;28;20207;-68
2022/11/21 10:50:38;;;;;;;6.37;1.40;;;;;;;20.70;59.88;98235.28;5095424;28;20225;-69
2022/11/21 10:56:04;;;;;;;7.63;1.53;;;;;;;20.89;61.34;98239.56;5096286;28;20199;-71
2022/11/21 10:58:39;;;;;;;9.20;1.90;;;;;;;20.92;61.59;98235.50;5095290;28;20579;-69
2022/11/21 11:01:06;;;;;;;4.10;1.27;;;;;;;20.92;60.84;98241.72;5075024;28;20659;-71
2022/11/21 11:03:33;;;;;;;4.00;1.37;;;;;;;20.78;60.32;98246.19;5075096;28;20204;-71
2022/11/21 11:06:00;;;;;;;2.63;1.40;;;;;;;20.77;61.82;98238.38;5078197;28;20188;-71
2022/11/21 11:08:30;;;;;;;2.00;1.90;;;;;;;20.71;62.32;98237.69;5074685;28;20209;-70
2022/11/21 11:11:06;;;;;;;4.60;2.50;;;;;;;20.57;62.78;98234.09;5074831;28;20253;-71
2022/11/21 11:13:50;;;;;;;378.50;229.63;;;;;;;20.67;70.92;98228.56;5075700;28;20286;-76
2022/11/21 11:16:19;;;;;;;294.73;168.00;;;;;;;20.71;67.88;98232.28;5075773;28;20184;-78
2022/11/21 11:18:51;;;;;;;428.47;245.13;;;;;;;20.97;76.18;98209.25;5074706;28;20227;-72
2022/11/21 11:21:20;;;;;;;192.60;99.87;;;;;;;21.14;68.57;98228.41;5074632;28;20709;-73
2022/11/21 11:23:49;;;;;;;192.27;108.87;;;;;;;21.14;67.95;98231.09;5075008;28;20283;-72
2022/11/21 11:26:26;;;;;;;99.93;57.27;;;;;;;21.23;67.15;98242.06;5088726;28;20217;-72
2022/11/21 11:28:54;;;;;;;60.00;28.90;;;;;;;21.37;65.56;98241.00;5095366;28;20187;-72
2022/11/21 11:31:21;;;;;;;20.53;11.50;;;;;;;21.46;62.76;98250.03;5075161;28;20269;-72
2022/11/21 11:33:54;;;;;;;15.10;6.67;;;;;;;21.55;59.11;98258.28;5075638;28;20250;-73
2022/11/21 11:36:37;;;;;;;16.90;10.50;;;;;;;21.43;61.35;98266.81;5075694;28;20245;-74